Time;durP1;ratioP1;P1;durP2;ratioP2;P2;SDS_P1;SDS_P2;PMS_P1;PMS_P2;Temp;Humidity;BMP_temperature;BMP_pressure;BME280_temperature;BME280_humidity;BME280_pressure;Samples;Min_cycle;Max_cycle;Signal;HPM_P1;HPM_P2
2021/11/07 00:03:49;;;;;;;132.45;69.88;;;3.00;99.90;;;;;;4980904;28;20054;-74
2021/11/07 00:06:23;;;;;;;213.45;84.97;;;3.00;99.90;;;;;;4987126;28;20022;-73
2021/11/07 00:08:57;;;;;;;147.10;72.40;;;3.00;99.90;;;;;;4990986;28;20070;-73
2021/11/07 00:11:27;;;;;;;295.02;99.32;;;3.10;99.90;;;;;;4988790;28;20038;-72
2021/11/07 00:13:53;;;;;;;165.48;77.78;;;3.00;99.90;;;;;;4986233;28;20053;-72
2021/11/07 00:16:39;;;;;;;107.65;61.00;;;3.00;99.90;;;;;;4981912;28;20031;-72
2021/11/07 00:19:14;;;;;;;155.55;74.03;;;3.10;99.90;;;;;;4984463;28;20023;-73
2021/11/07 00:22:08;;;;;;;126.63;68.53;;;3.20;99.90;;;;;;4972121;28;20027;-73
2021/11/07 00:24:42;;;;;;;189.50;84.78;;;3.30;99.90;;;;;;4983925;28;20025;-73
2021/11/07 00:32:53;;;;;;;129.48;69.25;;;3.10;99.90;;;;;;4977485;28;20028;-74
2021/11/07 00:37:51;;;;;;;104.15;61.97;;;3.00;99.90;;;;;;4983753;28;20022;-74
2021/11/07 00:43:04;;;;;;;136.88;69.93;;;3.20;99.90;;;;;;4983364;28;20034;-73
2021/11/07 00:45:38;;;;;;;100.95;61.67;;;3.10;99.90;;;;;;4982033;28;20034;-74
2021/11/07 00:50:51;;;;;;;131.05;69.43;;;3.10;99.90;;;;;;4983575;28;20023;-73
2021/11/07 00:55:53;;;;;;;221.48;87.45;;;2.90;99.90;;;;;;4984368;28;20022;-73
2021/11/07 00:58:31;;;;;;;124.07;66.57;;;2.90;99.90;;;;;;4974008;28;20031;-73
2021/11/07 01:01:07;;;;;;;109.47;61.60;;;2.80;99.90;;;;;;4975561;28;20043;-74
2021/11/07 01:03:33;;;;;;;;;;;2.80;99.90;;;;;;4979662;28;20019;-74
2021/11/07 01:05:58;;;;;;;185.23;83.00;;;2.80;99.90;;;;;;4988116;28;19910;-73
2021/11/07 01:08:24;;;;;;;149.23;73.00;;;2.80;99.90;;;;;;4985548;28;20262;-74
2021/11/07 01:10:50;;;;;;;125.28;65.82;;;2.70;99.90;;;;;;4988027;28;20101;-74
2021/11/07 01:13:16;;;;;;;140.70;69.63;;;2.60;99.90;;;;;;4991575;28;20088;-74
2021/11/07 01:15:42;;;;;;;122.85;65.25;;;2.60;99.90;;;;;;4983291;28;20031;-74
2021/11/07 01:18:08;;;;;;;164.63;73.68;;;2.60;99.90;;;;;;4991580;28;20026;-74
2021/11/07 01:20:35;;;;;;;106.32;61.78;;;2.50;99.90;;;;;;4986318;28;20050;-73
2021/11/07 01:25:40;;;;;;;149.88;71.72;;;2.60;99.90;;;;;;4986447;28;20468;-74
2021/11/07 01:28:06;;;;;;;181.52;80.05;;;2.50;99.90;;;;;;4989780;28;20476;-73
2021/11/07 01:30:37;;;;;;;176.00;79.13;;;2.60;99.90;;;;;;4985396;28;20041;-73
2021/11/07 01:38:50;;;;;;;218.63;86.30;;;2.40;99.90;;;;;;4941053;29;20107;-73
2021/11/07 01:41:30;;;;;;;166.00;76.22;;;2.30;99.90;;;;;;4968954;28;20066;-74
2021/11/07 01:43:58;;;;;;;98.68;60.55;;;2.30;99.90;;;;;;4980062;28;20038;-74
2021/11/07 01:46:32;;;;;;;110.80;63.03;;;2.40;99.90;;;;;;4984497;28;20073;-73
2021/11/07 01:51:32;;;;;;;112.28;65.20;;;2.30;99.90;;;;;;4991167;28;20468;-75
2021/11/07 01:54:17;;;;;;;148.75;76.93;;;2.40;99.90;;;;;;4985154;28;20384;-73
2021/11/07 01:56:42;;;;;;;132.55;69.63;;;2.40;99.90;;;;;;4978172;28;20026;-74
2021/11/07 01:59:08;;;;;;;95.25;59.25;;;2.40;99.90;;;;;;4985655;28;20026;-74
2021/11/07 02:01:34;;;;;;;94.05;58.75;;;2.40;99.90;;;;;;4984436;28;20026;-74
2021/11/07 02:03:59;;;;;;;85.55;57.70;;;2.40;99.90;;;;;;4984286;28;20034;-74
2021/11/07 02:06:26;;;;;;;94.38;60.10;;;2.50;99.90;;;;;;4983401;28;20054;-74
2021/11/07 02:08:53;;;;;;;78.32;54.47;;;2.50;99.90;;;;;;4982830;28;20373;-74
2021/11/07 02:11:19;;;;;;;102.47;61.00;;;2.40;99.90;;;;;;4983538;28;20078;-74
2021/11/07 02:13:46;;;;;;;108.65;64.10;;;2.40;99.90;;;;;;4988158;28;20470;-74
2021/11/07 02:16:12;;;;;;;105.20;62.38;;;2.30;99.90;;;;;;4989450;28;20057;-73
2021/11/07 02:18:38;;;;;;;110.90;65.00;;;2.30;99.90;;;;;;4989663;28;20114;-74
2021/11/07 02:21:05;;;;;;;86.90;56.83;;;2.30;99.90;;;;;;4982113;28;20063;-74
2021/11/07 02:23:31;;;;;;;83.57;56.92;;;2.50;99.90;;;;;;4985171;28;20026;-74
2021/11/07 02:26:01;;;;;;;79.85;53.67;;;2.30;99.90;;;;;;4987909;28;20684;-74
2021/11/07 02:28:47;;;;;;;109.35;62.45;;;2.30;99.90;;;;;;4982572;28;20037;-73
2021/11/07 02:31:16;;;;;;;83.72;55.42;;;2.20;99.90;;;;;;4991210;28;20057;-73
2021/11/07 02:33:42;;;;;;;117.15;66.47;;;2.20;99.90;;;;;;4989634;28;20081;-73
2021/11/07 02:36:17;;;;;;;88.05;56.55;;;2.30;99.90;;;;;;4987780;28;20026;-73
2021/11/07 02:38:44;;;;;;;86.47;55.78;;;2.20;99.90;;;;;;4990087;28;20096;-73
2021/11/07 02:41:10;;;;;;;111.38;63.72;;;2.20;99.90;;;;;;4983706;28;20065;-73
2021/11/07 02:43:47;;;;;;;81.00;55.10;;;2.10;99.90;;;;;;4983506;28;20022;-73
2021/11/07 02:46:17;;;;;;;108.88;62.47;;;2.10;99.90;;;;;;4983768;28;20022;-74
2021/11/07 02:48:48;;;;;;;110.63;61.75;;;2.10;99.90;;;;;;4985180;28;20068;-73
2021/11/07 02:51:15;;;;;;;82.50;54.28;;;2.00;99.90;;;;;;4983565;28;20022;-73
2021/11/07 02:53:40;;;;;;;80.80;53.42;;;2.00;99.90;;;;;;4984801;28;20034;-73
2021/11/07 02:56:07;;;;;;;101.38;60.75;;;2.00;99.90;;;;;;4984895;28;20042;-73
2021/11/07 02:58:33;;;;;;;76.57;51.53;;;2.10;99.90;;;;;;4984944;28;20473;-73
2021/11/07 03:01:00;;;;;;;94.82;56.15;;;2.10;99.90;;;;;;4985813;28;20030;-74
2021/11/07 03:03:26;;;;;;;74.10;51.45;;;2.10;99.90;;;;;;4983800;28;20023;-73
2021/11/07 03:05:52;;;;;;;78.70;52.00;;;2.10;99.90;;;;;;4985590;28;20118;-73
2021/11/07 03:08:17;;;;;;;74.20;50.00;;;2.10;99.90;;;;;;4982464;28;20126;-73
2021/11/07 03:10:43;;;;;;;72.60;49.25;;;2.00;99.90;;;;;;4985901;28;20035;-74
2021/11/07 03:13:14;;;;;;;89.53;54.50;;;2.00;99.90;;;;;;4989470;28;20388;-73
2021/11/07 03:15:40;;;;;;;86.22;52.72;;;1.90;99.90;;;;;;4981067;28;20026;-73
2021/11/07 03:18:12;;;;;;;65.25;46.22;;;1.90;99.90;;;;;;4986902;28;20532;-73
2021/11/07 03:20:38;;;;;;;79.18;50.38;;;2.00;99.90;;;;;;4981782;28;20030;-73
2021/11/07 03:23:05;;;;;;;70.47;48.47;;;2.00;99.90;;;;;;4980742;28;20436;-73
2021/11/07 03:25:31;;;;;;;75.00;49.40;;;2.00;99.90;;;;;;4982678;28;20029;-73
2021/11/07 03:27:58;;;;;;;91.57;55.17;;;1.90;99.90;;;;;;4984418;28;20022;-72
2021/11/07 03:30:39;;;;;;;71.38;47.50;;;1.80;99.90;;;;;;4984351;28;20022;-73
2021/11/07 03:33:13;;;;;;;81.85;50.85;;;1.90;99.90;;;;;;4983229;28;20026;-73
2021/11/07 03:35:41;;;;;;;72.47;48.80;;;1.80;99.90;;;;;;4975938;28;20026;-73
2021/11/07 03:38:09;;;;;;;67.20;46.38;;;1.80;99.90;;;;;;4982801;28;20027;-73
2021/11/07 03:40:35;;;;;;;77.40;48.65;;;1.70;99.90;;;;;;4976778;28;20030;-72
2021/11/07 03:43:01;;;;;;;74.80;49.33;;;1.70;99.90;;;;;;4977286;28;20027;-74
2021/11/07 03:45:27;;;;;;;73.15;49.33;;;1.80;99.90;;;;;;4985861;28;20626;-73
2021/11/07 03:47:53;;;;;;;72.57;47.67;;;1.60;99.90;;;;;;4986245;28;20026;-73
2021/11/07 03:50:20;;;;;;;65.38;44.22;;;1.60;99.90;;;;;;4988327;28;20022;-73
2021/11/07 03:52:47;;;;;;;67.50;46.92;;;1.80;99.90;;;;;;4979150;28;20015;-74
2021/11/07 03:55:13;;;;;;;61.25;43.58;;;1.80;99.90;;;;;;4982984;28;20026;-73
2021/11/07 03:57:39;;;;;;;62.50;44.13;;;1.90;99.90;;;;;;4974208;28;20027;-74
2021/11/07 04:00:10;;;;;;;62.30;43.85;;;2.00;99.90;;;;;;4990805;28;20049;-73
2021/11/07 04:02:36;;;;;;;59.28;41.70;;;1.90;99.90;;;;;;4976758;28;20105;-73
2021/11/07 04:05:02;;;;;;;66.28;46.05;;;2.00;99.90;;;;;;4972624;28;20057;-74
2021/11/07 04:07:28;;;;;;;63.10;43.13;;;2.10;99.90;;;;;;4985745;28;20543;-74
2021/11/07 04:09:54;;;;;;;63.03;44.30;;;2.10;99.90;;;;;;4972750;28;20019;-73
2021/11/07 04:12:19;;;;;;;62.08;43.47;;;2.10;99.90;;;;;;4972334;28;20030;-73
2021/11/07 04:14:45;;;;;;;58.47;42.40;;;2.10;99.90;;;;;;4972663;28;20077;-74
2021/11/07 04:17:10;;;;;;;57.40;41.97;;;2.10;99.90;;;;;;4986081;28;20125;-73
2021/11/07 04:19:36;;;;;;;56.95;42.05;;;2.20;99.90;;;;;;4983989;28;20042;-74
2021/11/07 04:22:04;;;;;;;67.05;46.03;;;2.20;99.90;;;;;;4987217;28;20037;-73
2021/11/07 04:24:30;;;;;;;57.30;43.13;;;2.20;99.90;;;;;;4982235;28;20107;-73
2021/11/07 04:26:56;;;;;;;56.88;41.22;;;2.30;99.90;;;;;;4972391;28;20393;-74
2021/11/07 04:29:21;;;;;;;63.58;43.92;;;2.20;99.90;;;;;;4972564;28;20031;-74
2021/11/07 04:31:48;;;;;;;56.35;42.67;;;2.30;99.90;;;;;;4961694;28;20031;-74
2021/11/07 04:34:13;;;;;;;65.95;45.97;;;2.20;99.90;;;;;;4992034;28;20023;-74
2021/11/07 04:36:39;;;;;;;58.75;43.97;;;2.20;99.90;;;;;;4976111;28;20034;-74
2021/11/07 04:39:05;;;;;;;62.17;43.50;;;2.20;99.90;;;;;;4985074;28;20057;-74
2021/11/07 04:41:30;;;;;;;55.20;40.53;;;2.20;99.90;;;;;;4981177;28;20047;-73
2021/11/07 04:43:56;;;;;;;68.40;46.38;;;2.30;99.90;;;;;;4976325;28;20030;-73
2021/11/07 04:46:22;;;;;;;58.63;42.97;;;2.20;99.90;;;;;;4975852;28;20034;-73
2021/11/07 04:48:49;;;;;;;55.72;41.40;;;2.20;99.90;;;;;;4974741;28;20094;-73
2021/11/07 04:51:15;;;;;;;60.22;41.83;;;2.10;99.90;;;;;;4974538;28;20034;-74
2021/11/07 04:53:41;;;;;;;57.50;41.33;;;2.20;99.90;;;;;;4975983;28;20031;-73
2021/11/07 04:56:07;;;;;;;55.25;41.55;;;2.20;99.90;;;;;;4961537;28;20476;-74
2021/11/07 04:58:34;;;;;;;64.78;44.17;;;2.30;99.90;;;;;;4975816;28;20030;-74
2021/11/07 05:01:00;;;;;;;60.08;40.15;;;2.30;99.90;;;;;;4964023;28;20038;-73
2021/11/07 05:03:26;;;;;;;54.35;38.78;;;2.20;99.90;;;;;;4985929;28;20033;-73
2021/11/07 05:05:51;;;;;;;60.25;42.30;;;2.20;99.90;;;;;;4978471;28;20030;-73
2021/11/07 05:08:18;;;;;;;62.58;44.15;;;2.20;99.90;;;;;;4998880;28;20482;-73
2021/11/07 05:10:43;;;;;;;67.18;44.45;;;2.20;99.90;;;;;;4981518;28;20050;-73
2021/11/07 05:13:10;;;;;;;56.45;40.05;;;2.30;99.90;;;;;;4974150;28;20481;-73
2021/11/07 05:15:36;;;;;;;58.83;40.97;;;2.20;99.90;;;;;;4975178;28;20507;-74
2021/11/07 05:18:02;;;;;;;56.33;40.10;;;2.30;99.90;;;;;;4975590;28;20026;-75
2021/11/07 05:20:29;;;;;;;56.90;38.13;;;2.40;99.90;;;;;;4975328;28;20110;-73
2021/11/07 05:22:54;;;;;;;54.67;39.33;;;2.40;99.90;;;;;;4975341;28;20062;-73
2021/11/07 05:25:20;;;;;;;60.25;40.35;;;2.40;99.90;;;;;;4976635;28;20511;-72
2021/11/07 05:27:46;;;;;;;55.22;38.65;;;2.40;99.90;;;;;;4985497;28;20030;-72
2021/11/07 05:30:13;;;;;;;52.97;38.75;;;2.40;99.90;;;;;;4960933;28;20023;-73
2021/11/07 05:32:40;;;;;;;63.03;42.65;;;2.40;99.90;;;;;;4984196;28;20484;-73
2021/11/07 05:35:06;;;;;;;56.00;41.63;;;2.40;99.90;;;;;;4978930;28;20509;-73
2021/11/07 05:37:32;;;;;;;55.00;40.65;;;2.50;99.90;;;;;;4974955;28;20389;-73
2021/11/07 05:39:57;;;;;;;62.67;44.25;;;2.40;99.90;;;;;;4974971;28;20019;-73
2021/11/07 05:42:23;;;;;;;61.05;43.33;;;2.50;99.90;;;;;;4972803;28;20053;-73
2021/11/07 05:44:49;;;;;;;72.30;50.75;;;2.50;99.90;;;;;;4977095;28;20082;-72
2021/11/07 05:47:15;;;;;;;59.92;43.45;;;2.50;99.90;;;;;;4974726;28;20058;-72
2021/11/07 05:49:41;;;;;;;63.75;43.50;;;2.40;99.90;;;;;;4974759;28;20047;-72
2021/11/07 05:52:06;;;;;;;55.97;40.60;;;2.40;99.90;;;;;;4974593;28;20097;-72
2021/11/07 05:54:32;;;;;;;61.60;43.30;;;2.40;99.90;;;;;;4964346;28;20034;-72
2021/11/07 05:57:00;;;;;;;56.45;40.22;;;2.30;99.90;;;;;;4990872;28;20381;-73
2021/11/07 05:59:26;;;;;;;61.60;42.92;;;2.30;99.90;;;;;;4984327;28;20109;-73
2021/11/07 06:01:52;;;;;;;61.72;42.30;;;2.40;99.90;;;;;;4977991;28;20035;-74
2021/11/07 06:04:18;;;;;;;60.88;42.00;;;2.40;99.90;;;;;;4974544;28;20798;-73
2021/11/07 06:06:43;;;;;;;56.53;39.50;;;2.40;99.90;;;;;;4974334;28;20109;-73
2021/11/07 06:09:09;;;;;;;57.72;40.25;;;2.50;99.90;;;;;;4989648;28;20125;-73
2021/11/07 06:11:35;;;;;;;54.90;38.00;;;2.40;99.90;;;;;;4974221;28;20078;-73
2021/11/07 06:14:01;;;;;;;61.15;41.05;;;2.50;99.90;;;;;;4975594;28;20019;-72
2021/11/07 06:16:27;;;;;;;59.75;39.38;;;2.60;99.90;;;;;;4993689;28;20463;-73
2021/11/07 06:18:52;;;;;;;57.30;39.95;;;2.50;99.90;;;;;;4993627;28;20050;-72
2021/11/07 06:21:18;;;;;;;55.90;38.47;;;2.50;99.90;;;;;;4993494;28;20031;-72
2021/11/07 06:23:46;;;;;;;53.92;38.45;;;2.50;99.90;;;;;;4993495;28;20031;-73
2021/11/07 06:26:12;;;;;;;57.20;39.90;;;2.70;99.90;;;;;;4983616;28;20027;-73
2021/11/07 06:28:37;;;;;;;56.75;38.75;;;2.70;99.90;;;;;;4974038;28;20415;-73
2021/11/07 06:31:05;;;;;;;55.50;38.40;;;2.60;99.90;;;;;;4973928;28;20512;-73
2021/11/07 06:33:31;;;;;;;54.58;36.35;;;2.50;99.90;;;;;;4987861;28;20026;-73
2021/11/07 06:35:57;;;;;;;55.45;37.67;;;2.70;99.90;;;;;;4975776;28;20489;-73
2021/11/07 06:38:23;;;;;;;56.67;38.78;;;2.60;99.90;;;;;;4986765;28;20476;-73
2021/11/07 06:40:48;;;;;;;61.78;40.72;;;2.60;99.90;;;;;;4973637;28;20031;-73
2021/11/07 06:43:14;;;;;;;56.50;38.97;;;2.60;99.90;;;;;;4972745;28;20495;-73
2021/11/07 06:45:40;;;;;;;53.35;37.38;;;2.60;99.90;;;;;;4973705;28;20515;-73
2021/11/07 06:48:06;;;;;;;62.05;40.25;;;2.60;99.90;;;;;;4972371;28;20023;-73
2021/11/07 06:50:32;;;;;;;56.33;39.22;;;2.70;99.90;;;;;;4973645;28;20497;-73
2021/11/07 06:52:59;;;;;;;50.65;36.13;;;2.70;99.90;;;;;;4986590;28;20026;-73
2021/11/07 06:55:25;;;;;;;57.35;38.90;;;2.70;99.90;;;;;;4973090;28;20038;-73
2021/11/07 06:57:51;;;;;;;50.80;35.42;;;2.80;99.90;;;;;;4970525;28;20027;-73
2021/11/07 07:00:20;;;;;;;51.30;36.97;;;2.80;99.90;;;;;;4963581;28;20412;-73
2021/11/07 07:02:46;;;;;;;52.35;36.55;;;2.80;99.90;;;;;;4971861;28;20077;-73
2021/11/07 07:05:13;;;;;;;60.33;39.20;;;2.80;99.90;;;;;;4962287;28;20110;-73
2021/11/07 07:07:42;;;;;;;54.85;37.38;;;2.90;99.90;;;;;;4987297;28;20157;-73
2021/11/07 07:10:12;;;;;;;53.78;36.83;;;2.70;99.90;;;;;;4982634;28;20018;-73
2021/11/07 07:12:43;;;;;;;56.92;37.80;;;2.80;99.90;;;;;;4990944;28;20015;-73
2021/11/07 07:15:17;;;;;;;53.28;36.38;;;2.80;99.90;;;;;;4991292;28;20027;-74
2021/11/07 07:20:38;;;;;;;51.55;36.80;;;2.90;99.90;;;;;;4992707;28;20114;-73
2021/11/07 07:26:09;;;;;;;52.45;35.85;;;3.10;99.90;;;;;;4967367;28;20135;-73
2021/11/07 07:28:45;;;;;;;50.90;37.05;;;3.10;99.90;;;;;;4982758;28;20026;-73
2021/11/07 07:34:01;;;;;;;55.47;39.10;;;2.90;99.90;;;;;;4973090;28;20038;-73
2021/11/07 07:36:27;;;;;;;47.63;35.53;;;3.10;99.90;;;;;;4973085;28;20035;-73
2021/11/07 07:38:54;;;;;;;48.78;35.72;;;3.10;99.90;;;;;;4965177;28;20110;-73
2021/11/07 07:41:20;;;;;;;50.80;35.58;;;3.00;99.90;;;;;;4973069;28;20034;-73
2021/11/07 07:43:45;;;;;;;47.92;35.22;;;3.00;99.90;;;;;;4974010;28;20433;-73
2021/11/07 07:46:12;;;;;;;54.72;37.42;;;3.00;99.90;;;;;;4972772;28;20059;-73
2021/11/07 07:48:43;;;;;;;51.15;36.47;;;3.00;99.90;;;;;;4971777;28;20030;-73
2021/11/07 07:51:11;;;;;;;54.55;36.80;;;3.00;99.90;;;;;;4971468;28;20122;-73
2021/11/07 07:53:38;;;;;;;55.70;37.42;;;3.00;99.90;;;;;;4971600;28;20031;-73
2021/11/07 07:56:05;;;;;;;58.15;39.20;;;3.00;99.90;;;;;;4961568;28;20050;-73
2021/11/07 07:58:31;;;;;;;58.13;39.83;;;3.10;99.90;;;;;;4991087;28;20027;-73
2021/11/07 08:00:57;;;;;;;60.15;39.15;;;3.00;99.90;;;;;;4991842;28;20034;-73
2021/11/07 08:03:23;;;;;;;56.55;39.28;;;3.00;99.90;;;;;;4992251;28;20085;-73
2021/11/07 08:05:49;;;;;;;63.05;39.95;;;3.00;99.90;;;;;;4991160;28;20034;-73
2021/11/07 08:08:14;;;;;;;65.15;42.35;;;3.00;99.90;;;;;;4996185;28;20105;-72
2021/11/07 08:10:41;;;;;;;66.63;42.47;;;3.00;99.90;;;;;;4995874;28;20515;-72
2021/11/07 08:13:07;;;;;;;64.05;42.00;;;3.00;99.90;;;;;;4996295;28;20114;-72
2021/11/07 08:15:33;;;;;;;77.88;46.65;;;3.00;99.90;;;;;;4981626;28;20460;-72
2021/11/07 08:17:58;;;;;;;73.63;44.78;;;3.10;99.90;;;;;;4976474;28;20054;-72
2021/11/07 08:20:24;;;;;;;83.15;49.33;;;3.00;99.90;;;;;;4976430;28;20424;-72
2021/11/07 08:22:51;;;;;;;76.95;46.75;;;3.00;99.90;;;;;;4976151;28;20030;-72
2021/11/07 08:25:21;;;;;;;72.88;46.33;;;3.00;99.90;;;;;;4974794;28;20038;-72
2021/11/07 08:27:50;;;;;;;67.68;43.90;;;3.00;99.90;;;;;;4976848;28;20046;-72
2021/11/07 08:30:19;;;;;;;75.63;45.80;;;3.00;99.90;;;;;;4976214;28;20082;-72
2021/11/07 08:32:45;;;;;;;66.30;43.05;;;3.00;99.90;;;;;;4976033;28;20440;-72
2021/11/07 08:35:11;;;;;;;75.93;46.05;;;3.10;99.90;;;;;;4971611;28;20090;-72
2021/11/07 08:37:46;;;;;;;73.35;45.42;;;3.00;99.90;;;;;;4976235;28;20473;-72
2021/11/07 08:40:18;;;;;;;72.03;46.30;;;3.10;99.90;;;;;;4992899;28;20656;-72
2021/11/07 08:43:11;;;;;;;68.95;45.42;;;3.10;99.90;;;;;;4986132;28;20523;-72
2021/11/07 09:02:31;;;;;;;78.80;47.72;;;3.20;99.90;;;;;;4985066;28;20054;-72
2021/11/07 09:05:06;;;;;;;82.35;47.65;;;3.30;99.90;;;;;;4964574;28;20045;-73
2021/11/07 09:10:06;;;;;;;99.57;53.20;;;3.40;99.90;;;;;;4975702;28;20030;-72
2021/11/07 09:12:32;;;;;;;94.60;51.63;;;3.30;99.90;;;;;;4974118;28;20496;-73
2021/11/07 09:14:58;;;;;;;83.05;50.10;;;3.30;99.90;;;;;;4975557;28;20023;-72
2021/11/07 09:17:24;;;;;;;90.57;51.92;;;3.40;99.90;;;;;;4974782;28;20034;-72
2021/11/07 09:19:54;;;;;;;72.90;46.28;;;3.40;99.90;;;;;;4965094;28;20038;-72
2021/11/07 09:22:31;;;;;;;85.22;50.15;;;3.40;99.90;;;;;;4985264;28;20148;-72
2021/11/07 09:25:05;;;;;;;100.30;53.92;;;3.40;99.90;;;;;;4975347;28;20045;-72
2021/11/07 09:27:44;;;;;;;90.50;52.28;;;3.50;99.90;;;;;;4962839;28;20393;-72
2021/11/07 09:30:19;;;;;;;71.35;46.72;;;3.50;99.90;;;;;;4974019;28;20019;-72
2021/11/07 09:40:19;;;;;;;87.25;50.90;;;3.80;99.90;;;;;;4981034;28;20018;-72
2021/11/07 09:45:27;;;;;;;103.27;55.07;;;3.80;99.90;;;;;;4974942;28;20019;-72
2021/11/07 09:48:13;;;;;;;99.45;53.90;;;3.90;99.90;;;;;;4973572;28;20019;-71
2021/11/07 09:50:41;;;;;;;103.93;56.97;;;3.90;99.90;;;;;;4974689;28;20023;-72
2021/11/07 09:53:07;;;;;;;79.85;49.10;;;3.90;99.90;;;;;;4973656;28;20031;-72
2021/11/07 09:55:33;;;;;;;105.78;59.25;;;3.90;99.90;;;;;;4974668;28;20111;-72
2021/11/07 09:58:00;;;;;;;80.72;49.90;;;4.00;99.90;;;;;;4974701;28;20109;-72
2021/11/07 10:00:29;;;;;;;85.63;50.92;;;4.00;99.90;;;;;;4973352;28;20074;-72
2021/11/07 10:02:55;;;;;;;75.60;48.05;;;4.20;99.90;;;;;;4974290;28;20045;-71
2021/11/07 10:05:23;;;;;;;100.55;54.40;;;4.10;99.90;;;;;;4974442;28;20030;-72
2021/11/07 10:08:02;;;;;;;73.28;46.17;;;4.10;99.90;;;;;;4974496;28;20488;-72
2021/11/07 10:10:32;;;;;;;71.50;46.50;;;4.20;99.90;;;;;;4974585;28;20030;-72
2021/11/07 10:13:06;;;;;;;69.45;43.05;;;4.30;99.90;;;;;;4980391;28;20015;-72
2021/11/07 10:15:46;;;;;;;80.68;47.67;;;4.30;99.90;;;;;;4975157;28;20049;-72
2021/11/07 10:18:27;;;;;;;75.82;46.92;;;4.40;99.90;;;;;;4974363;28;20050;-72
2021/11/07 10:20:59;;;;;;;76.50;46.50;;;4.40;99.90;;;;;;4961523;28;20701;-72
2021/11/07 10:23:30;;;;;;;67.40;42.28;;;4.60;99.90;;;;;;4962571;28;20054;-72
2021/11/07 10:26:14;;;;;;;75.75;43.60;;;4.50;99.90;;;;;;4993779;28;20018;-72
2021/11/07 10:28:49;;;;;;;68.20;41.30;;;4.60;99.90;;;;;;4974733;28;20366;-72
2021/11/07 10:31:31;;;;;;;65.38;41.80;;;4.60;99.90;;;;;;4972520;28;20037;-72
2021/11/07 10:42:05;;;;;;;53.00;34.35;;;4.70;99.90;;;;;;4973697;28;20027;-72
2021/11/07 10:44:43;;;;;;;55.40;35.95;;;4.70;99.90;;;;;;4972332;28;20086;-72
2021/11/07 10:52:37;;;;;;;35.45;24.88;;;4.80;99.90;;;;;;4992959;28;20444;-72
2021/11/07 10:55:14;;;;;;;45.25;30.45;;;4.80;99.90;;;;;;4993058;28;20101;-72
2021/11/07 10:57:51;;;;;;;39.15;28.58;;;4.80;99.90;;;;;;4992981;28;20058;-72
2021/11/07 11:00:23;;;;;;;34.33;25.45;;;4.90;99.90;;;;;;4975184;28;20122;-72
2021/11/07 11:02:52;;;;;;;36.80;27.15;;;4.80;99.90;;;;;;4970705;28;20022;-72
2021/11/07 11:05:26;;;;;;;31.95;24.00;;;4.90;99.90;;;;;;4972071;28;20069;-72
2021/11/07 11:08:22;;;;;;;36.25;26.42;;;4.90;99.90;;;;;;4990404;28;20018;-72
2021/11/07 11:11:02;;;;;;;28.95;22.58;;;4.90;99.90;;;;;;4975840;28;20023;-72
2021/11/07 11:22:13;;;;;;;31.90;22.52;;;5.00;99.90;;;;;;4973138;28;20034;-72
2021/11/07 11:27:42;;;;;;;27.48;21.30;;;5.10;99.90;;;;;;4991110;28;20393;-72
2021/11/07 11:35:36;;;;;;;25.63;19.65;;;5.20;99.90;;;;;;4979366;28;20027;-72
2021/11/07 11:38:24;;;;;;;24.60;19.00;;;5.20;99.90;;;;;;4972861;28;20015;-72
2021/11/07 11:43:39;;;;;;;26.60;20.63;;;5.20;99.90;;;;;;4972953;28;20031;-72
2021/11/07 11:46:48;;;;;;;28.30;21.05;;;5.20;99.90;;;;;;4972856;28;20027;-72
2021/11/07 11:49:40;;;;;;;27.30;21.05;;;5.30;99.90;;;;;;4971647;28;20027;-72
2021/11/07 11:52:21;;;;;;;29.13;24.90;;;5.30;99.90;;;;;;4961468;28;20051;-72
2021/11/07 12:00:48;;;;;;;18.80;16.55;;;5.40;99.90;;;;;;4977298;28;20066;-72
2021/11/07 12:06:25;;;;;;;18.05;16.08;;;5.50;99.90;;;;;;4979867;28;20035;-72
2021/11/07 12:12:01;;;;;;;20.25;16.60;;;5.60;99.90;;;;;;4965168;28;20027;-72
2021/11/07 12:14:47;;;;;;;19.35;15.85;;;5.60;99.90;;;;;;4971454;28;20022;-72
2021/11/07 12:17:13;;;;;;;19.58;17.08;;;5.50;99.90;;;;;;4970662;28;20082;-72
2021/11/07 12:19:42;;;;;;;17.23;14.95;;;5.50;99.90;;;;;;4973362;28;20066;-72
2021/11/07 12:22:30;;;;;;;17.73;15.25;;;5.50;99.90;;;;;;4972472;28;20396;-73
2021/11/07 12:25:03;;;;;;;21.15;15.70;;;5.60;99.90;;;;;;4972793;28;20027;-73
2021/11/07 12:27:56;;;;;;;16.90;15.18;;;5.60;99.90;;;;;;4972377;28;20515;-72
2021/11/07 12:30:29;;;;;;;15.93;14.32;;;5.60;99.90;;;;;;4972397;28;20125;-72
2021/11/07 12:33:07;;;;;;;16.83;14.40;;;5.60;99.90;;;;;;4984254;28;20026;-72
2021/11/07 12:35:42;;;;;;;17.55;14.68;;;5.70;99.90;;;;;;4976513;28;20022;-72
2021/11/07 12:41:03;;;;;;;14.95;13.32;;;5.70;99.90;;;;;;4972230;28;20111;-73
2021/11/07 12:43:37;;;;;;;16.10;14.45;;;5.70;99.90;;;;;;4990952;28;20396;-72
2021/11/07 12:46:20;;;;;;;15.23;13.55;;;5.70;99.90;;;;;;4978688;28;20544;-72
2021/11/07 12:48:49;;;;;;;15.50;13.77;;;5.80;99.90;;;;;;4971801;28;20023;-72
2021/11/07 12:51:20;;;;;;;14.73;13.23;;;5.80;99.90;;;;;;4978406;28;20026;-73
2021/11/07 12:54:19;;;;;;;15.27;13.05;;;5.80;99.90;;;;;;4987239;28;20027;-73
2021/11/07 12:56:53;;;;;;;15.35;13.05;;;5.90;99.90;;;;;;4968932;28;20110;-72
2021/11/07 12:59:24;;;;;;;14.88;12.90;;;5.80;99.90;;;;;;4974433;28;20027;-73
2021/11/07 13:01:55;;;;;;;13.35;11.95;;;5.90;99.90;;;;;;4976076;28;20053;-73
2021/11/07 13:04:22;;;;;;;14.90;12.35;;;5.90;99.90;;;;;;4979375;28;20054;-73
2021/11/07 13:06:54;;;;;;;13.10;11.50;;;5.90;99.90;;;;;;4984769;28;20129;-72
2021/11/07 13:09:21;;;;;;;13.35;11.95;;;5.90;99.90;;;;;;4975066;28;20023;-72
2021/11/07 13:11:51;;;;;;;13.25;11.70;;;5.90;99.90;;;;;;4974290;28;20051;-72
2021/11/07 13:20:33;;;;;;;14.20;11.70;;;5.90;99.90;;;;;;4963700;28;20093;-73
2021/11/07 13:23:26;;;;;;;13.18;11.60;;;5.90;99.90;;;;;;4976631;28;20023;-73
2021/11/07 13:28:43;;;;;;;12.35;11.00;;;6.00;99.90;;;;;;4978585;28;20034;-73
2021/11/07 13:33:42;;;;;;;10.68;9.57;;;6.00;99.90;;;;;;4981686;28;20392;-73
2021/11/07 13:36:09;;;;;;;11.25;9.65;;;6.00;99.90;;;;;;4982139;28;20062;-72
2021/11/07 13:38:46;;;;;;;11.00;9.90;;;6.00;99.90;;;;;;4988156;28;20169;-73
2021/11/07 13:41:17;;;;;;;10.73;9.52;;;6.10;99.90;;;;;;4987647;28;20031;-73
2021/11/07 13:43:52;;;;;;;9.57;8.65;;;6.10;99.90;;;;;;4984427;28;20026;-72
2021/11/07 13:46:18;;;;;;;10.30;9.23;;;6.10;99.90;;;;;;4994012;28;20520;-73
2021/11/07 13:48:43;;;;;;;10.05;8.93;;;6.10;99.90;;;;;;4993132;28;20027;-73
2021/11/07 13:51:09;;;;;;;10.00;8.82;;;6.20;99.90;;;;;;4992792;28;20030;-73
2021/11/07 13:53:40;;;;;;;10.05;8.85;;;6.20;99.90;;;;;;4993055;28;20030;-73
2021/11/07 13:56:12;;;;;;;11.57;9.40;;;6.20;99.90;;;;;;4994049;28;20089;-73
2021/11/07 13:58:40;;;;;;;12.07;9.18;;;6.10;99.90;;;;;;4983034;28;20101;-73
2021/11/07 14:01:09;;;;;;;10.35;9.35;;;6.20;99.90;;;;;;4973192;28;20404;-72
2021/11/07 14:03:35;;;;;;;11.05;9.35;;;6.20;99.90;;;;;;4973438;28;20393;-73
2021/11/07 14:08:49;;;;;;;11.35;9.60;;;6.20;99.90;;;;;;4994073;28;20027;-73
2021/11/07 14:11:21;;;;;;;10.70;9.60;;;6.20;99.90;;;;;;4966933;28;20488;-72
2021/11/07 14:13:50;;;;;;;10.48;9.07;;;6.10;99.90;;;;;;4993990;28;20045;-72
2021/11/07 14:16:28;;;;;;;9.50;8.45;;;6.10;99.90;;;;;;4993671;28;20034;-73
2021/11/07 14:18:54;;;;;;;10.13;8.70;;;6.10;99.90;;;;;;4992496;28;20041;-73
2021/11/07 14:21:20;;;;;;;11.23;9.20;;;6.10;99.90;;;;;;4983260;28;20027;-73
2021/11/07 14:23:59;;;;;;;10.73;9.63;;;6.10;99.90;;;;;;4977082;28;20041;-73
2021/11/07 14:31:47;;;;;;;10.60;9.57;;;6.10;99.90;;;;;;4961133;28;20385;-72
2021/11/07 14:34:19;;;;;;;10.07;9.07;;;6.00;99.90;;;;;;4967962;28;20019;-73
2021/11/07 14:37:23;;;;;;;12.18;10.23;;;6.10;99.90;;;;;;4977055;28;20033;-73
2021/11/07 14:44:56;;;;;;;10.77;9.07;;;6.10;99.90;;;;;;4974313;28;20030;-72
2021/11/07 14:47:30;;;;;;;10.05;9.05;;;6.10;99.90;;;;;;4973952;28;20162;-73
2021/11/07 14:51:04;;;;;;;9.80;8.90;;;6.10;99.90;;;;;;4977306;28;20113;-72
2021/11/07 14:53:08;;;;;;;9.80;8.80;;;6.10;99.90;;;;;;4989111;28;20045;-73
2021/11/07 14:55:48;;;;;;;9.95;8.93;;;6.10;99.90;;;;;;4991777;28;20400;-73
2021/11/07 15:04:01;;;;;;;10.18;9.02;;;6.10;99.90;;;;;;4973835;28;20482;-73
2021/11/07 15:09:04;;;;;;;10.13;8.77;;;6.20;99.90;;;;;;4973498;28;20031;-73
2021/11/07 15:14:30;;;;;;;9.38;8.48;;;6.20;99.90;;;;;;4973744;28;20039;-73
2021/11/07 15:17:08;;;;;;;9.93;9.02;;;6.20;99.90;;;;;;4971995;28;20038;-72
2021/11/07 15:19:41;;;;;;;9.13;8.23;;;6.20;99.90;;;;;;4980883;28;20037;-73
2021/11/07 15:22:10;;;;;;;9.27;8.38;;;6.20;99.90;;;;;;4979912;28;20034;-73
2021/11/07 15:24:40;;;;;;;8.98;8.10;;;6.20;99.90;;;;;;4983862;28;20061;-73